createdAt,value
2018-08-19T00:00:07.339Z,62.42
2018-08-19T00:01:07.589Z,62.52
2018-08-19T00:02:07.575Z,61.85
2018-08-19T00:03:07.297Z,61.94
2018-08-19T00:04:07.287Z,61.46
2018-08-19T00:05:07.538Z,61.46
2018-08-19T00:06:07.527Z,60.99
2018-08-19T00:07:07.249Z,61.37
2018-08-19T00:08:07.506Z,60.6
2018-08-19T00:09:07.227Z,60.41
2018-08-19T00:10:07.485Z,60.79
2018-08-19T00:11:07.520Z,60.41
2018-08-19T00:12:07.195Z,60.03
2018-08-19T00:13:07.180Z,60.12
2018-08-19T00:14:07.441Z,59.36
2018-08-19T00:15:07.162Z,59.45
2018-08-19T00:16:07.410Z,59.55
2018-08-19T00:17:07.431Z,59.45
2018-08-19T00:18:07.387Z,59.45
2018-08-19T00:19:07.116Z,59.93
2018-08-19T00:20:07.362Z,59.16
2018-08-19T00:21:07.091Z,59.26
2018-08-19T00:22:07.083Z,58.78
2018-08-19T00:23:07.066Z,58.3
2018-08-19T00:24:07.318Z,57.82
2018-08-19T00:25:07.303Z,58.59
2018-08-19T00:26:07.292Z,58.3
2018-08-19T00:27:07.280Z,58.39
2018-08-19T00:28:07.270Z,58.3
2018-08-19T00:29:07.274Z,58.59
2018-08-19T00:30:07.246Z,58.27
2018-08-19T00:31:07.029Z,57.98
2018-08-19T00:32:07.235Z,58.17
2018-08-19T00:33:06.953Z,57.79
2018-08-19T00:34:07.199Z,58.08
2018-08-19T00:35:06.920Z,57.5
2018-08-19T00:36:06.912Z,57.31
2018-08-19T00:37:07.174Z,56.83
2018-08-19T00:38:06.885Z,56.54
2018-08-19T00:39:06.877Z,56.07
2018-08-19T00:40:07.124Z,55.68
2018-08-19T00:41:06.849Z,55.68
2018-08-19T00:42:06.849Z,55.58
2018-08-19T00:43:07.090Z,55.78
2018-08-19T00:44:07.080Z,55.68
2018-08-19T00:45:06.812Z,55.49
2018-08-19T00:46:06.790Z,55.49
2018-08-19T00:47:06.784Z,56.35
2018-08-19T00:48:07.240Z,56.26
2018-08-19T00:49:07.016Z,55.49
2018-08-19T00:50:07.007Z,54.91
2018-08-19T00:51:06.990Z,54.24
2018-08-19T00:52:06.982Z,54.82
2018-08-19T00:53:06.981Z,54.15
2018-08-19T00:54:06.701Z,54.53
2018-08-19T00:55:06.688Z,54.34
2018-08-19T00:56:06.703Z,53.86
2018-08-19T00:57:06.661Z,53.96
2018-08-19T00:58:06.641Z,53.86
2018-08-19T00:59:06.894Z,53.09
2018-08-19T01:00:06.628Z,52.71
2018-08-19T01:01:06.605Z,52.62
2018-08-19T01:02:06.595Z,51.65
2018-08-19T01:03:06.585Z,51.95
2018-08-19T01:04:06.839Z,52.14
2018-08-19T01:05:06.822Z,51.95
2018-08-19T01:06:06.825Z,52.14
2018-08-19T01:07:06.801Z,51.85
2018-08-19T01:08:06.795Z,51.08
2018-08-19T01:09:06.773Z,51.46
2018-08-19T01:10:06.773Z,51.08
2018-08-19T01:11:06.489Z,50.7
2018-08-19T01:12:06.754Z,50.41
2018-08-19T01:13:06.724Z,50.32
2018-08-19T01:14:06.711Z,49.93
2018-08-19T01:15:06.435Z,50.03
2018-08-19T01:16:06.690Z,49.84
2018-08-19T01:17:06.420Z,49.36
2018-08-19T01:18:06.400Z,48.88
2018-08-19T01:19:06.388Z,48.69
2018-08-19T01:20:06.378Z,48.49
2018-08-19T01:21:06.635Z,48.59
2018-08-19T01:22:06.354Z,48.21
2018-08-19T01:23:06.344Z,48.28
2018-08-19T01:24:06.329Z,48.59
2018-08-19T01:25:06.584Z,48.69
2018-08-19T01:26:06.303Z,48.59
2018-08-19T01:27:06.297Z,48.59
2018-08-19T01:28:06.549Z,48.88
2018-08-19T01:29:06.532Z,48.57
2018-08-19T01:30:06.255Z,48.18
2018-08-19T01:31:06.256Z,47.99
2018-08-19T01:32:06.499Z,47.32
2018-08-19T01:33:06.482Z,47.61
2018-08-19T01:34:06.207Z,47.13
2018-08-19T01:35:06.460Z,46.94
2018-08-19T01:36:06.450Z,47.32
2018-08-19T01:37:06.432Z,46.36
2018-08-19T01:38:06.418Z,46.17
2018-08-19T01:39:06.406Z,46.36
2018-08-19T01:40:06.400Z,46.26
2018-08-19T01:41:06.384Z,46.17
2018-08-19T01:42:06.107Z,45.69
2018-08-19T01:43:06.360Z,46.17
2018-08-19T01:44:06.083Z,45.21
2018-08-19T01:45:06.386Z,45.5
2018-08-19T01:46:06.059Z,45.5
2018-08-19T01:47:06.332Z,45.31
2018-08-19T01:48:06.035Z,45.4
2018-08-19T01:49:06.022Z,45.02
2018-08-19T01:50:06.272Z,44.73
2018-08-19T01:51:06.282Z,44.73
2018-08-19T01:52:06.249Z,44.54
2018-08-19T01:53:06.239Z,44.54
2018-08-19T01:54:06.230Z,44.26
2018-08-19T01:55:06.215Z,44.16
2018-08-19T01:56:06.207Z,44.16
2018-08-19T01:57:05.923Z,43.59
2018-08-19T01:58:06.186Z,43.2
2018-08-19T01:59:06.164Z,42.34
2018-08-19T02:00:06.149Z,42.14
2018-08-19T02:01:05.869Z,42.44
2018-08-19T02:02:06.125Z,42.14
2018-08-19T02:03:06.110Z,41.96
2018-08-19T02:04:06.101Z,41.38
2018-08-19T02:05:06.099Z,40.61
2018-08-19T02:06:06.076Z,40.52
2018-08-19T02:07:05.798Z,40.23
2018-08-19T02:08:05.789Z,40.04
2018-08-19T02:09:05.770Z,40.23
2018-08-19T02:10:05.761Z,39.94
2018-08-19T02:11:05.746Z,39.28
2018-08-19T02:12:06.000Z,39.37
2018-08-19T02:13:05.987Z,38.79
2018-08-19T02:14:05.708Z,38.89
2018-08-19T02:15:05.707Z,38.6
2018-08-19T02:16:05.952Z,38.6
2018-08-19T02:17:05.960Z,38.6
2018-08-19T02:18:05.931Z,38.51
2018-08-19T02:19:05.648Z,38.22
2018-08-19T02:20:05.896Z,38.22
2018-08-19T02:21:05.620Z,37.74
2018-08-19T02:22:05.874Z,37.65
2018-08-19T02:23:05.858Z,38.03
2018-08-19T02:24:05.581Z,38.22
2018-08-19T02:25:05.619Z,38.41
2018-08-19T02:26:05.825Z,38.51
2018-08-19T02:27:05.818Z,38.22
2018-08-19T02:28:05.539Z,38.22
2018-08-19T02:29:05.793Z,38.32
2018-08-19T02:30:05.512Z,38.22
2018-08-19T02:31:05.766Z,37.93
2018-08-19T02:32:05.494Z,37.93
2018-08-19T02:33:05.747Z,37.74
2018-08-19T02:34:05.463Z,37.74
2018-08-19T02:35:05.446Z,37.26
2018-08-19T02:36:05.700Z,37.36
2018-08-19T02:37:05.423Z,36.98
2018-08-19T02:38:05.681Z,36.67
2018-08-19T02:39:05.397Z,36.88
2018-08-19T02:40:05.384Z,36.57
2018-08-19T02:41:05.638Z,36.47
2018-08-19T02:42:05.356Z,36.88
2018-08-19T02:43:05.608Z,36.57
2018-08-19T02:44:05.331Z,36.59
2018-08-19T02:45:05.335Z,36.57
2018-08-19T02:46:05.579Z,36.77
2018-08-19T02:47:05.563Z,37.05
2018-08-19T02:48:05.748Z,36.96
2018-08-19T02:49:05.545Z,36.29
2018-08-19T02:50:05.265Z,35.52
2018-08-19T02:51:05.245Z,35.42
2018-08-19T02:52:05.233Z,35.04
2018-08-19T02:53:05.496Z,35.04
2018-08-19T02:54:05.206Z,34.85
2018-08-19T02:55:05.457Z,34.66
2018-08-19T02:56:05.187Z,34.37
2018-08-19T02:57:05.372Z,34.18
2018-08-19T02:58:05.419Z,34.28
2018-08-19T02:59:05.143Z,34.18
2018-08-19T03:00:05.393Z,34.08
2018-08-19T03:01:05.137Z,34.08
2018-08-19T03:02:05.105Z,34.18
2018-08-19T03:03:05.102Z,34.08
2018-08-19T03:04:05.093Z,34.18
2018-08-19T03:05:05.074Z,33.89
2018-08-19T03:06:05.317Z,33.89
2018-08-19T03:07:05.305Z,33.51
2018-08-19T03:08:05.290Z,33.03
2018-08-19T03:09:05.283Z,32.55
2018-08-19T03:10:05.005Z,32.93
2018-08-19T03:11:05.265Z,32.55
2018-08-19T03:12:04.977Z,32.17
2018-08-19T03:13:05.249Z,32.55
2018-08-19T03:14:05.217Z,32.17
2018-08-19T03:15:05.271Z,32.17
2018-08-19T03:16:04.926Z,32.26
2018-08-19T03:17:05.180Z,31.88
2018-08-19T03:18:05.161Z,31.98
2018-08-19T03:19:04.888Z,31.59
2018-08-19T03:20:05.137Z,31.4
2018-08-19T03:21:05.141Z,31.69
2018-08-19T03:22:05.122Z,31.5
2018-08-19T03:23:05.116Z,31.59
2018-08-19T03:24:04.834Z,31.59
2018-08-19T03:25:04.809Z,31.4
2018-08-19T03:26:05.067Z,31.12
2018-08-19T03:27:05.050Z,31.12
2018-08-19T03:28:05.039Z,31.4
2018-08-19T03:29:05.029Z,31.21
2018-08-19T03:30:05.029Z,31.4
2018-08-19T03:31:04.736Z,30.93
2018-08-19T03:32:04.991Z,30.73
2018-08-19T03:33:04.982Z,30.35
2018-08-19T03:34:04.696Z,30.93
2018-08-19T03:35:04.953Z,30.64
2018-08-19T03:36:04.670Z,30.64
2018-08-19T03:37:04.921Z,30.73
2018-08-19T03:38:04.796Z,31.02
2018-08-19T03:39:04.637Z,31.02
2018-08-19T03:40:04.889Z,30.64
2018-08-19T03:41:04.875Z,30.54
2018-08-19T03:42:04.857Z,30.62
2018-08-19T03:43:04.581Z,30.15
2018-08-19T03:44:04.566Z,30.06
2018-08-19T03:45:04.556Z,29.58
2018-08-19T03:46:04.544Z,30.05
2018-08-19T03:47:04.530Z,29.87
2018-08-19T03:48:04.781Z,29.28
2018-08-19T03:49:04.509Z,29.2
2018-08-19T03:50:04.493Z,28.63
2018-08-19T03:51:04.744Z,28.52
2018-08-19T03:52:04.729Z,28.44
2018-08-19T03:53:04.719Z,28.72
2018-08-19T03:54:04.440Z,28.81
2018-08-19T03:55:04.709Z,28.61
2018-08-19T03:56:04.412Z,28.7
2018-08-19T03:57:04.399Z,28.61
2018-08-19T03:58:04.679Z,27.94
2018-08-19T03:59:04.641Z,27.75
2018-08-19T04:00:04.362Z,27.56
2018-08-19T04:01:04.620Z,27.75
2018-08-19T04:02:04.340Z,27.37
2018-08-19T04:03:04.325Z,27.84
2018-08-19T04:04:04.308Z,27.56
2018-08-19T04:05:04.557Z,27.27
2018-08-19T04:06:04.285Z,27.37
2018-08-19T04:07:04.534Z,27.08
2018-08-19T04:08:04.522Z,27.08
2018-08-19T04:09:04.511Z,27.08
2018-08-19T04:10:04.501Z,27.27
2018-08-19T04:11:04.214Z,26.7
2018-08-19T04:12:04.468Z,26.89
2018-08-19T04:13:04.190Z,26.89
2018-08-19T04:14:04.442Z,26.89
2018-08-19T04:15:04.437Z,26.7
2018-08-19T04:16:04.421Z,27.08
2018-08-19T04:17:04.403Z,26.6
2018-08-19T04:18:04.399Z,26.6
2018-08-19T04:19:04.373Z,26.6
2018-08-19T04:20:04.105Z,26.22
2018-08-19T04:21:04.089Z,26.12
2018-08-19T04:22:04.074Z,25.84
2018-08-19T04:23:04.336Z,25.16
2018-08-19T04:24:04.050Z,25.45
2018-08-19T04:25:04.301Z,25.26
2018-08-19T04:26:04.288Z,25.16
2018-08-19T04:27:04.013Z,24.98
2018-08-19T04:28:04.259Z,24.69
2018-08-19T04:29:04.296Z,24.98
2018-08-19T04:30:03.972Z,24.88
2018-08-19T04:31:04.222Z,24.88
2018-08-19T04:32:03.945Z,24.79
2018-08-19T04:33:04.216Z,24.88
2018-08-19T04:34:04.192Z,24.88
2018-08-19T04:35:04.174Z,24.79
2018-08-19T04:36:04.187Z,24.4
2018-08-19T04:37:03.876Z,24.79
2018-08-19T04:38:03.865Z,24.69
2018-08-19T04:39:03.856Z,24.5
2018-08-19T04:40:03.841Z,24.4
2018-08-19T04:41:03.825Z,24.4
2018-08-19T04:42:03.839Z,24.02
2018-08-19T04:43:03.808Z,23.73
2018-08-19T04:44:04.062Z,23.25
2018-08-19T04:45:03.772Z,23.06
2018-08-19T04:46:04.027Z,22.58
2018-08-19T04:47:03.748Z,22.3
2018-08-19T04:48:04.222Z,22.01
2018-08-19T04:49:03.736Z,22.11
2018-08-19T04:50:03.709Z,21.72
2018-08-19T04:51:03.699Z,21.53
2018-08-19T04:52:03.945Z,21.72
2018-08-19T04:53:03.675Z,21.91
2018-08-19T04:54:03.933Z,21.83
2018-08-19T04:55:03.925Z,21.72
2018-08-19T04:56:03.902Z,21.62
2018-08-19T04:57:03.892Z,21.53
2018-08-19T04:58:03.603Z,21.25
2018-08-19T04:59:03.885Z,21.54
2018-08-19T05:00:03.845Z,21.45
2018-08-19T05:01:03.575Z,21.54
2018-08-19T05:02:03.952Z,21.45
2018-08-19T05:03:03.808Z,21.54
2018-08-19T05:04:03.797Z,21.64
2018-08-19T05:05:03.513Z,21.45
2018-08-19T05:06:03.508Z,21.45
2018-08-19T05:07:03.757Z,21.73
2018-08-19T05:08:03.513Z,21.64
2018-08-19T05:09:03.728Z,21.73
2018-08-19T05:10:03.717Z,21.54
2018-08-19T05:11:03.702Z,21.54
2018-08-19T05:12:03.423Z,20.97
2018-08-19T05:13:03.411Z,20.97
2018-08-19T05:14:03.402Z,21.06
2018-08-19T05:15:03.393Z,20.87
2018-08-19T05:16:03.375Z,20.68
2018-08-19T05:17:03.624Z,20.1
2018-08-19T05:18:03.613Z,20.2
2018-08-19T05:19:03.607Z,20.58
2018-08-19T05:20:03.583Z,20.49
2018-08-19T05:21:03.576Z,20.4
2018-08-19T05:22:03.568Z,20.1
2018-08-19T05:23:03.548Z,20.5
2018-08-19T05:24:03.540Z,20.59
2018-08-19T05:25:03.524Z,20.31
2018-08-19T05:26:03.244Z,20.88
2018-08-19T05:27:03.230Z,20.88
2018-08-19T05:28:03.222Z,21.26
2018-08-19T05:29:03.215Z,21.45
2018-08-19T05:30:03.460Z,21.55
2018-08-19T05:31:03.184Z,21.94
2018-08-19T05:32:03.431Z,22.7
2018-08-19T05:33:03.156Z,22.8
2018-08-19T05:34:03.409Z,23.38
2018-08-19T05:35:03.132Z,23.28
2018-08-19T05:36:03.130Z,24.34
2018-08-19T05:37:03.382Z,24.82
2018-08-19T05:38:03.545Z,25.68
2018-08-19T05:39:03.347Z,26.35
2018-08-19T05:40:03.337Z,27.03
2018-08-19T05:41:03.323Z,27.89
2018-08-19T05:42:03.043Z,28.08
2018-08-19T05:43:03.297Z,29.23
2018-08-19T05:44:03.019Z,30.49
2018-08-19T05:45:03.277Z,30.49
2018-08-19T05:46:02.999Z,31.26
2018-08-19T05:47:03.038Z,31.45
2018-08-19T05:48:02.970Z,32.21
2018-08-19T05:49:02.957Z,32.98
2018-08-19T05:50:03.211Z,33.75
2018-08-19T05:51:02.930Z,34.52
2018-08-19T05:52:03.195Z,34.9
2018-08-19T05:53:03.170Z,35.77
2018-08-19T05:54:03.249Z,35.86
2018-08-19T05:55:03.151Z,36.82
2018-08-19T05:56:03.135Z,36.55
2018-08-19T05:57:03.120Z,36.84
2018-08-19T05:58:03.112Z,37.22
2018-08-19T05:59:03.102Z,37.6
2018-08-19T06:00:03.097Z,37.89
2018-08-19T06:01:03.225Z,38.85
2018-08-19T06:02:02.800Z,39.04
2018-08-19T06:03:03.048Z,39.62
2018-08-19T06:04:02.773Z,39.72
2018-08-19T06:05:02.770Z,39.33
2018-08-19T06:06:02.748Z,39.43
2018-08-19T06:07:02.741Z,40.48
2018-08-19T06:08:02.733Z,40.67
2018-08-19T06:09:02.984Z,41.54
2018-08-19T06:10:02.976Z,41.93
2018-08-19T06:11:02.953Z,42.5
2018-08-19T06:12:02.678Z,42.79
2018-08-19T06:13:02.932Z,43.36
2018-08-19T06:14:02.666Z,42.4
2018-08-19T06:15:02.913Z,43.07
2018-08-19T06:16:02.632Z,43.67
2018-08-19T06:17:02.891Z,44.44
2018-08-19T06:18:02.871Z,45.11
2018-08-19T06:19:02.856Z,44.82
2018-08-19T06:20:02.846Z,44.44
2018-08-19T06:21:02.835Z,44.63
2018-08-19T06:22:02.689Z,45.11
2018-08-19T06:23:02.814Z,44.73
2018-08-19T06:24:02.544Z,45.01
2018-08-19T06:25:02.803Z,45.11
2018-08-19T06:26:02.789Z,46.07
2018-08-19T06:27:02.500Z,46.26
2018-08-19T06:28:02.749Z,46.94
2018-08-19T06:29:02.747Z,46.45
2018-08-19T06:30:02.734Z,47.8
2018-08-19T06:31:02.804Z,47.89
2018-08-19T06:32:02.709Z,50.01
2018-08-19T06:33:02.694Z,50.39
2018-08-19T06:34:02.421Z,50.32
2018-08-19T06:35:03.085Z,51.47
2018-08-19T06:36:02.400Z,51.47
2018-08-19T06:37:02.646Z,52.24
2018-08-19T06:38:02.644Z,52.34
2018-08-19T06:39:02.627Z,51.28
2018-08-19T06:40:02.351Z,50.99
2018-08-19T06:41:02.628Z,50.51
2018-08-19T06:42:02.590Z,52.14
2018-08-19T06:43:02.675Z,52.72
2018-08-19T06:44:02.304Z,52.72
2018-08-19T06:45:02.560Z,56.46
2018-08-19T06:46:02.545Z,54.93
2018-08-19T06:47:02.538Z,55.69
2018-08-19T06:48:02.462Z,56.3
2018-08-19T06:49:02.510Z,54.45
2018-08-19T06:50:02.505Z,58.22
2018-08-19T06:51:02.495Z,58.89
2018-08-19T06:52:02.213Z,58.03
2018-08-19T06:53:02.462Z,58.51
2018-08-19T06:54:02.451Z,58.32
2018-08-19T06:55:02.180Z,59.47
2018-08-19T06:56:02.428Z,59.38
2018-08-19T06:57:02.419Z,59.19
2018-08-19T06:58:02.146Z,58.8
2018-08-19T06:59:02.401Z,59.47
2018-08-19T07:00:02.122Z,60.43
2018-08-19T07:01:02.116Z,60.63
2018-08-19T07:02:02.362Z,61.68
2018-08-19T07:03:02.366Z,61.3
2018-08-19T07:04:02.614Z,63.41
2018-08-19T07:05:02.333Z,63.51
2018-08-19T07:06:02.056Z,62.55
2018-08-19T07:07:02.310Z,63.6
2018-08-19T07:08:02.041Z,65.05
2018-08-19T07:09:02.282Z,64.6
2018-08-19T07:10:02.273Z,64.22
2018-08-19T07:11:02.270Z,63.73
2018-08-19T07:12:02.253Z,65.46
2018-08-19T07:13:02.245Z,65.37
2018-08-19T07:14:02.238Z,69.4
2018-08-19T07:15:02.218Z,67.96
2018-08-19T07:16:02.208Z,69.21
2018-08-19T07:17:02.197Z,71.23
2018-08-19T07:18:02.187Z,72
2018-08-19T07:19:01.914Z,68.44
2018-08-19T07:20:01.915Z,70.07
2018-08-19T07:21:01.935Z,71.42
2018-08-19T07:22:01.876Z,71.61
2018-08-19T07:23:02.141Z,74.6
2018-08-19T07:24:01.856Z,77.38
2018-08-19T07:25:01.882Z,75.69
2018-08-19T07:26:02.106Z,78.28
2018-08-19T07:27:02.091Z,80.4
2018-08-19T07:28:01.812Z,79.25
2018-08-19T07:29:02.069Z,78.48
2018-08-19T07:30:02.069Z,81.07
2018-08-19T07:31:02.059Z,84.16
2018-08-19T07:32:01.780Z,83.77
2018-08-19T07:33:02.027Z,85.5
2018-08-19T07:34:02.015Z,85.11
2018-08-19T07:35:01.742Z,85.21
2018-08-19T07:36:01.735Z,87.13
2018-08-19T07:37:01.788Z,85.78
2018-08-19T07:38:01.996Z,86.65
2018-08-19T07:39:01.698Z,89.29
2018-08-19T07:40:01.950Z,87.27
2018-08-19T07:41:01.947Z,86.51
2018-08-19T07:42:01.934Z,89.58
2018-08-19T07:43:01.662Z,89.1
2018-08-19T07:44:01.729Z,89.49
2018-08-19T07:45:01.637Z,87.46
2018-08-19T07:46:01.625Z,91.99
2018-08-19T07:47:01.618Z,90.16
2018-08-19T07:48:01.873Z,89.49
2018-08-19T07:49:01.596Z,91.7
2018-08-19T07:50:01.585Z,92.66
2018-08-19T07:51:01.843Z,92.57
2018-08-19T07:52:01.834Z,96.32
2018-08-19T07:53:01.554Z,97.04
2018-08-19T07:54:01.546Z,96.94
2018-08-19T07:55:01.798Z,98.19
2018-08-19T07:56:01.525Z,97.04
2018-08-19T07:57:01.793Z,97.42
2018-08-19T07:58:01.499Z,98
2018-08-19T07:59:01.495Z,97.62
2018-08-19T08:00:01.480Z,99.99
2018-08-19T08:01:01.475Z,99.84
2018-08-19T08:02:01.727Z,99.06
2018-08-19T08:03:01.714Z,99.93
2018-08-19T08:04:01.705Z,99.99
2018-08-19T08:05:01.694Z,99.93
2018-08-19T08:06:01.689Z,99.99
2018-08-19T08:07:01.410Z,99.99
2018-08-19T08:08:01.665Z,99.99
2018-08-19T08:09:01.657Z,99.99
2018-08-19T08:10:01.392Z,99.99
2018-08-19T08:11:01.851Z,99.99
2018-08-19T08:12:01.625Z,99.99
2018-08-19T08:13:01.402Z,99.99
2018-08-19T08:14:01.341Z,99.99
2018-08-19T08:15:01.594Z,99.99
2018-08-19T08:16:01.327Z,99.99
2018-08-19T08:17:01.320Z,99.99
2018-08-19T08:18:01.566Z,99.99
2018-08-19T08:19:01.615Z,99.99
2018-08-19T08:20:01.292Z,99.99
2018-08-19T08:21:01.551Z,99.99
2018-08-19T08:22:01.737Z,99.99
2018-08-19T08:23:01.250Z,99.99
2018-08-19T08:24:01.241Z,99.99
2018-08-19T08:25:01.501Z,99.99
2018-08-19T08:26:01.226Z,99.99
2018-08-19T08:27:01.486Z,99.99
2018-08-19T08:28:01.475Z,99.99
2018-08-19T08:29:01.251Z,99.99
2018-08-19T08:30:01.465Z,99.99
2018-08-19T08:31:01.444Z,99.99
2018-08-19T08:32:01.430Z,99.99
2018-08-19T08:33:01.436Z,99.99
2018-08-19T08:34:01.413Z,99.99
2018-08-19T08:35:01.145Z,99.99
2018-08-19T08:36:01.126Z,99.99
2018-08-19T08:37:01.390Z,99.99
2018-08-19T08:38:01.373Z,99.99
2018-08-19T08:39:01.102Z,99.99
2018-08-19T08:40:01.128Z,99.99
2018-08-19T08:41:01.094Z,99.99
2018-08-19T08:42:01.090Z,99.99
2018-08-19T08:43:01.330Z,99.99
2018-08-19T08:44:01.324Z,99.99
2018-08-19T08:45:01.058Z,99.99
2018-08-19T08:46:01.306Z,99.99
2018-08-19T08:47:01.031Z,99.99
2018-08-19T08:48:01.683Z,99.99
2018-08-19T08:49:01.011Z,99.99
2018-08-19T08:50:01.272Z,99.99
2018-08-19T08:51:01.262Z,99.99
2018-08-19T08:52:01.253Z,99.99
2018-08-19T08:53:01.243Z,99.99
2018-08-19T08:54:01.233Z,99.99
2018-08-19T08:55:01.229Z,99.99
2018-08-19T08:56:00.957Z,99.99
2018-08-19T08:57:01.223Z,99.99
2018-08-19T08:58:00.935Z,99.99
2018-08-19T08:59:01.196Z,99.99
2018-08-19T09:00:01.217Z,99.99
2018-08-19T09:01:01.174Z,99.99
2018-08-19T09:02:01.171Z,99.99
2018-08-19T09:03:00.894Z,99.99
2018-08-19T09:04:01.157Z,99.99
2018-08-19T09:05:00.880Z,99.99
2018-08-19T09:06:00.868Z,99.99
2018-08-19T09:07:01.127Z,99.99
2018-08-19T09:08:00.853Z,99.99
2018-08-19T09:09:01.110Z,99.99
2018-08-19T09:10:01.098Z,99.99
2018-08-19T09:11:00.833Z,99.99
2018-08-19T09:12:00.826Z,99.99
2018-08-19T09:13:01.087Z,99.99
2018-08-19T09:14:00.834Z,99.99
2018-08-19T09:15:00.799Z,99.99
2018-08-19T09:16:01.055Z,99.99
2018-08-19T09:17:01.062Z,99.99
2018-08-19T09:18:01.093Z,99.99
2018-08-19T09:19:01.031Z,99.99
2018-08-19T09:20:01.026Z,99.99
2018-08-19T09:21:01.017Z,99.99
2018-08-19T09:22:00.746Z,99.99
2018-08-19T09:23:00.774Z,99.99
2018-08-19T09:24:00.999Z,99.99
2018-08-19T09:25:00.987Z,99.99
2018-08-19T09:26:00.978Z,99.99
2018-08-19T09:27:00.704Z,99.99
2018-08-19T09:28:00.700Z,99.99
2018-08-19T09:29:00.694Z,99.99
2018-08-19T09:30:00.953Z,99.99
2018-08-19T09:31:00.673Z,99.99
2018-08-19T09:32:00.671Z,99.99
2018-08-19T09:33:01.081Z,99.99
2018-08-19T09:34:00.658Z,99.99
2018-08-19T09:35:00.908Z,99.99
2018-08-19T09:36:00.640Z,99.99
2018-08-19T09:37:00.900Z,99.99
2018-08-19T09:38:00.619Z,99.99
2018-08-19T09:39:00.940Z,99.99
2018-08-19T09:40:00.605Z,99.99
2018-08-19T09:41:00.862Z,99.99
2018-08-19T09:42:00.594Z,99.99
2018-08-19T09:43:00.584Z,99.99
2018-08-19T09:44:00.581Z,99.99
2018-08-19T09:45:00.569Z,99.99
2018-08-19T09:46:00.564Z,99.99
2018-08-19T09:47:00.824Z,99.99
2018-08-19T09:48:01.350Z,99.99
2018-08-19T09:49:00.546Z,99.99
2018-08-19T09:50:00.797Z,99.99
2018-08-19T09:51:00.791Z,99.99
2018-08-19T09:52:00.529Z,99.99
2018-08-19T09:53:00.775Z,99.99
2018-08-19T09:54:00.773Z,99.99
2018-08-19T09:55:00.767Z,99.99
2018-08-19T09:56:00.759Z,99.99
2018-08-19T09:57:00.483Z,99.99
2018-08-19T09:58:00.479Z,99.99
2018-08-19T09:59:00.671Z,99.99
2018-08-19T10:00:00.744Z,99.99
2018-08-19T10:01:00.733Z,99.99
2018-08-19T10:02:00.716Z,99.99
2018-08-19T10:03:00.439Z,99.99
2018-08-19T10:04:00.430Z,99.99
2018-08-19T10:05:00.456Z,99.99
2018-08-19T10:06:00.422Z,99.99
2018-08-19T10:07:00.681Z,99.99
2018-08-19T10:08:00.672Z,99.99
2018-08-19T10:09:00.658Z,99.99
2018-08-19T10:10:00.665Z,99.99
2018-08-19T10:11:00.644Z,99.99
2018-08-19T10:12:00.639Z,99.99
2018-08-19T10:13:00.652Z,99.99
2018-08-19T10:14:00.640Z,99.99
2018-08-19T10:15:00.366Z,99.99
2018-08-19T10:16:00.612Z,99.99
2018-08-19T10:17:00.659Z,99.99
2018-08-19T10:18:00.652Z,99.99
2018-08-19T10:19:00.323Z,99.99
2018-08-19T10:20:00.598Z,99.99
2018-08-19T10:21:00.307Z,99.99
2018-08-19T10:22:00.568Z,99.99
2018-08-19T10:23:00.555Z,99.99
2018-08-19T10:24:00.292Z,99.99
2018-08-19T10:25:00.551Z,99.99
2018-08-19T10:26:00.556Z,99.99
2018-08-19T10:27:00.549Z,99.99
2018-08-19T10:28:00.531Z,99.99
2018-08-19T10:29:00.252Z,99.99
2018-08-19T10:30:00.249Z,98.49
2018-08-19T10:31:00.244Z,99.99
2018-08-19T10:32:00.512Z,98.05
2018-08-19T10:33:00.222Z,97.09
2018-08-19T10:34:00.478Z,96.7
2018-08-19T10:35:00.472Z,97.57
2018-08-19T10:36:00.501Z,95.73
2018-08-19T10:37:00.200Z,95.64
2018-08-19T10:38:00.451Z,98.25
2018-08-19T10:39:00.458Z,95.93
2018-08-19T10:40:00.444Z,95.87
2018-08-19T10:41:00.168Z,90.94
2018-08-19T10:42:00.529Z,90.65
2018-08-19T10:43:00.444Z,88.18
2018-08-19T10:44:00.156Z,88.18
2018-08-19T10:45:00.147Z,87.79
2018-08-19T10:46:00.410Z,86.63
2018-08-19T10:47:00.135Z,86.19
2018-08-19T10:48:00.134Z,86.19
2018-08-19T10:49:00.392Z,83.38
2018-08-19T10:50:00.384Z,83.81
2018-08-19T10:51:00.385Z,79.2
2018-08-19T10:52:00.131Z,78.85
2018-08-19T10:53:00.377Z,77.04
2018-08-19T10:54:00.369Z,76.98
2018-08-19T10:55:00.368Z,73.75
2018-08-19T10:56:00.364Z,71.42
2018-08-19T10:57:00.095Z,70.87
2018-08-19T10:58:00.109Z,71.52
2018-08-19T10:59:00.091Z,72.39
2018-08-19T11:00:00.441Z,71.97
2018-08-19T11:01:00.357Z,71.81
2018-08-19T11:02:00.351Z,70.78
2018-08-19T11:03:00.087Z,70.26
2018-08-19T11:04:00.083Z,71.29
2018-08-19T11:05:00.090Z,73.94
2018-08-19T11:06:00.084Z,73.94
2018-08-19T11:07:00.347Z,74.43
2018-08-19T11:08:00.344Z,76.17
2018-08-19T11:09:00.085Z,76.11
2018-08-19T11:10:00.079Z,73.04
2018-08-19T11:11:00.084Z,72.75
2018-08-19T11:12:00.084Z,72.94
2018-08-19T11:13:00.080Z,72.78
2018-08-19T11:14:00.349Z,71.23
2018-08-19T11:15:00.083Z,71.03
2018-08-19T11:16:00.090Z,70.75
2018-08-19T11:17:00.090Z,70.97
2018-08-19T11:18:00.349Z,69.51
2018-08-19T11:19:00.092Z,70.29
2018-08-19T11:20:00.356Z,70.32
2018-08-19T11:21:00.476Z,69.78
2018-08-19T11:22:00.356Z,66.89
2018-08-19T11:23:00.357Z,65.69
2018-08-19T11:24:00.365Z,64.45
2018-08-19T11:25:00.099Z,64.36
2018-08-19T11:26:00.103Z,64.36
2018-08-19T11:27:00.370Z,64.32
2018-08-19T11:28:00.112Z,63.09
2018-08-19T11:29:00.380Z,62.89
2018-08-19T11:30:00.386Z,62.41
2018-08-19T11:31:00.379Z,63.09
2018-08-19T11:32:00.387Z,62.73
2018-08-19T11:33:00.129Z,61.95
2018-08-19T11:34:00.223Z,61.46
2018-08-19T11:35:00.398Z,61.36
2018-08-19T11:36:00.141Z,63.25
2018-08-19T11:37:00.144Z,62.83
2018-08-19T11:38:00.405Z,64.29
2018-08-19T11:39:00.414Z,64.03
2018-08-19T11:40:00.420Z,62.86
2018-08-19T11:41:00.430Z,63.06
2018-08-19T11:42:00.164Z,62.79
2018-08-19T11:43:00.172Z,64.13
2018-08-19T11:44:00.172Z,61.36
2018-08-19T11:45:00.457Z,61.27
2018-08-19T11:46:00.445Z,61.82
2018-08-19T11:47:00.454Z,61.76
2018-08-19T11:48:00.465Z,60.78
2018-08-19T11:49:00.194Z,61.53
2018-08-19T11:50:00.461Z,61.24
2018-08-19T11:51:00.470Z,60.68
2018-08-19T11:52:00.480Z,58.95
2018-08-19T11:53:00.258Z,59.25
2018-08-19T11:54:00.482Z,58.47
2018-08-19T11:55:00.547Z,59.12
2018-08-19T11:56:00.497Z,60.19
2018-08-19T11:57:00.505Z,59.8
2018-08-19T11:58:00.239Z,60.46
2018-08-19T11:59:00.245Z,61.04
2018-08-19T12:00:00.257Z,61.33
2018-08-19T12:01:00.312Z,59.8
2018-08-19T12:02:00.661Z,59.8
2018-08-19T12:03:00.263Z,60.39
2018-08-19T12:04:00.541Z,59.31
2018-08-19T12:05:00.563Z,60.16
2018-08-19T12:06:00.292Z,59.22
2018-08-19T12:07:00.548Z,59.15
2018-08-19T12:08:00.554Z,58.5
2018-08-19T12:09:00.297Z,58.3
2018-08-19T12:10:00.305Z,58.86
2018-08-19T12:11:00.567Z,58.27
2018-08-19T12:12:00.310Z,58.95
2018-08-19T12:13:00.576Z,58.86
2018-08-19T12:14:00.585Z,59.15
2018-08-19T12:15:00.329Z,58.95
2018-08-19T12:16:00.328Z,58.92
2018-08-19T12:17:00.758Z,58.92
2018-08-19T12:18:00.602Z,59.19
2018-08-19T12:19:00.605Z,58.8
2018-08-19T12:20:00.661Z,59.41
2018-08-19T12:21:00.618Z,60.19
2018-08-19T12:22:00.359Z,59.83
2018-08-19T12:23:00.359Z,58.33
2018-08-19T12:24:00.633Z,58.42
2018-08-19T12:25:00.632Z,57.45
2018-08-19T12:26:00.638Z,57.38
2018-08-19T12:27:00.382Z,57.21
2018-08-19T12:28:00.646Z,56.36
2018-08-19T12:29:00.394Z,56.06
2018-08-19T12:30:00.395Z,57.5
2018-08-19T12:31:00.666Z,55.77
2018-08-19T12:32:00.408Z,56.29
2018-08-19T12:33:00.413Z,54.65
2018-08-19T12:34:00.681Z,55.85
2018-08-19T12:35:00.694Z,54.21
2018-08-19T12:36:00.429Z,54.33
2018-08-19T12:37:00.444Z,52.89
2018-08-19T12:38:00.706Z,51.72
2018-08-19T12:39:00.442Z,52.86
2018-08-19T12:40:00.443Z,52.45
2018-08-19T12:41:00.721Z,52.42
2018-08-19T12:42:00.454Z,53.11
2018-08-19T12:43:00.457Z,53.47
2018-08-19T12:44:00.728Z,52.79
2018-08-19T12:45:00.469Z,54.25
2018-08-19T12:46:00.470Z,54.36
2018-08-19T12:47:00.740Z,54.82
2018-08-19T12:48:00.747Z,54.82
2018-08-19T12:49:00.697Z,53.96
2018-08-19T12:50:00.763Z,53.77
2018-08-19T12:51:00.499Z,54.09
2018-08-19T12:52:00.503Z,52.74
2018-08-19T12:53:00.505Z,51.66
2018-08-19T12:54:00.778Z,52.15